sensor_id;sensor_type;location;lat;lon;timestamp;temperature;humidity
20174;DHT22;10246;50.620;7.232;2023-09-19T00:02:19;18.40;2.50
20174;DHT22;10246;50.620;7.232;2023-09-19T00:04:46;18.30;3.80
20174;DHT22;10246;50.620;7.232;2023-09-19T00:07:14;18.30;1.00
20174;DHT22;10246;50.620;7.232;2023-09-19T00:09:42;18.20;1.00
20174;DHT22;10246;50.620;7.232;2023-09-19T00:12:09;18.20;1.00
20174;DHT22;10246;50.620;7.232;2023-09-19T00:14:38;18.30;1.00
20174;DHT22;10246;50.620;7.232;2023-09-19T00:17:07;18.20;1.00
20174;DHT22;10246;50.620;7.232;2023-09-19T00:19:34;18.10;1.30
20174;DHT22;10246;50.620;7.232;2023-09-19T00:22:02;18.10;1.10
20174;DHT22;10246;50.620;7.232;2023-09-19T00:24:29;18.00;1.00
20174;DHT22;10246;50.620;7.232;2023-09-19T00:26:56;18.00;1.00
20174;DHT22;10246;50.620;7.232;2023-09-19T00:29:25;18.00;1.00
20174;DHT22;10246;50.620;7.232;2023-09-19T00:31:54;18.00;1.00
20174;DHT22;10246;50.620;7.232;2023-09-19T00:34:22;17.90;1.40
20174;DHT22;10246;50.620;7.232;2023-09-19T00:36:50;17.90;1.90
20174;DHT22;10246;50.620;7.232;2023-09-19T00:39:19;17.90;2.70
20174;DHT22;10246;50.620;7.232;2023-09-19T00:41:47;17.80;3.50
20174;DHT22;10246;50.620;7.232;2023-09-19T00:44:14;17.80;3.60
20174;DHT22;10246;50.620;7.232;2023-09-19T00:46:43;17.80;3.60
20174;DHT22;10246;50.620;7.232;2023-09-19T00:49:13;17.80;3.60
20174;DHT22;10246;50.620;7.232;2023-09-19T00:51:42;17.70;3.50
20174;DHT22;10246;50.620;7.232;2023-09-19T00:54:13;17.70;3.60
20174;DHT22;10246;50.620;7.232;2023-09-19T00:56:44;17.70;3.60
20174;DHT22;10246;50.620;7.232;2023-09-19T00:59:11;17.60;3.50
20174;DHT22;10246;50.620;7.232;2023-09-19T01:01:39;17.60;3.50
20174;DHT22;10246;50.620;7.232;2023-09-19T01:04:06;17.60;3.50
20174;DHT22;10246;50.620;7.232;2023-09-19T01:06:33;17.60;3.20
20174;DHT22;10246;50.620;7.232;2023-09-19T01:09:02;17.50;3.50
20174;DHT22;10246;50.620;7.232;2023-09-19T01:11:35;17.50;3.50
20174;DHT22;10246;50.620;7.232;2023-09-19T01:14:13;17.60;4.10
20174;DHT22;10246;50.620;7.232;2023-09-19T01:16:47;17.60;3.50
20174;DHT22;10246;50.620;7.232;2023-09-19T01:19:54;17.50;4.00
20174;DHT22;10246;50.620;7.232;2023-09-19T01:22:33;17.50;5.00
20174;DHT22;10246;50.620;7.232;2023-09-19T01:25:37;17.50;5.60
20174;DHT22;10246;50.620;7.232;2023-09-19T01:28:20;17.40;4.10
20174;DHT22;10246;50.620;7.232;2023-09-19T01:30:57;17.50;2.10
20174;DHT22;10246;50.620;7.232;2023-09-19T01:33:25;17.50;2.10
20174;DHT22;10246;50.620;7.232;2023-09-19T01:35:52;17.50;1.00
20174;DHT22;10246;50.620;7.232;2023-09-19T01:38:23;17.60;1.00
20174;DHT22;10246;50.620;7.232;2023-09-19T01:40:56;17.60;1.00
20174;DHT22;10246;50.620;7.232;2023-09-19T01:43:29;17.60;1.00
20174;DHT22;10246;50.620;7.232;2023-09-19T01:46:05;17.60;1.00
20174;DHT22;10246;50.620;7.232;2023-09-19T01:48:41;17.60;1.00
20174;DHT22;10246;50.620;7.232;2023-09-19T01:51:17;17.60;1.00
20174;DHT22;10246;50.620;7.232;2023-09-19T01:53:51;17.50;1.00
20174;DHT22;10246;50.620;7.232;2023-09-19T01:56:28;17.50;1.00
20174;DHT22;10246;50.620;7.232;2023-09-19T01:59:01;17.50;1.00
20174;DHT22;10246;50.620;7.232;2023-09-19T02:01:31;17.40;1.00
20174;DHT22;10246;50.620;7.232;2023-09-19T02:03:59;17.40;1.00
20174;DHT22;10246;50.620;7.232;2023-09-19T02:06:25;17.40;1.00
20174;DHT22;10246;50.620;7.232;2023-09-19T02:08:54;17.40;1.00
20174;DHT22;10246;50.620;7.232;2023-09-19T02:11:21;17.40;1.00
20174;DHT22;10246;50.620;7.232;2023-09-19T02:13:47;17.40;1.00
20174;DHT22;10246;50.620;7.232;2023-09-19T02:16:20;17.40;1.00
20174;DHT22;10246;50.620;7.232;2023-09-19T02:18:48;17.40;1.00
20174;DHT22;10246;50.620;7.232;2023-09-19T02:21:15;17.40;1.00
20174;DHT22;10246;50.620;7.232;2023-09-19T02:23:42;17.40;1.00
20174;DHT22;10246;50.620;7.232;2023-09-19T02:26:10;17.40;1.00
20174;DHT22;10246;50.620;7.232;2023-09-19T02:28:37;17.40;1.00
20174;DHT22;10246;50.620;7.232;2023-09-19T02:31:04;17.40;1.00
20174;DHT22;10246;50.620;7.232;2023-09-19T02:33:31;17.40;1.00
20174;DHT22;10246;50.620;7.232;2023-09-19T02:36:00;17.40;1.00
20174;DHT22;10246;50.620;7.232;2023-09-19T02:38:29;17.40;1.00
20174;DHT22;10246;50.620;7.232;2023-09-19T02:40:56;17.40;1.00
20174;DHT22;10246;50.620;7.232;2023-09-19T02:43:23;17.40;1.00
20174;DHT22;10246;50.620;7.232;2023-09-19T02:45:50;17.40;1.00
20174;DHT22;10246;50.620;7.232;2023-09-19T02:48:19;17.40;1.00
20174;DHT22;10246;50.620;7.232;2023-09-19T02:50:46;17.40;1.00
20174;DHT22;10246;50.620;7.232;2023-09-19T02:53:14;17.40;1.00
20174;DHT22;10246;50.620;7.232;2023-09-19T02:55:41;17.30;1.00
20174;DHT22;10246;50.620;7.232;2023-09-19T02:58:08;17.30;1.00
20174;DHT22;10246;50.620;7.232;2023-09-19T03:00:37;17.30;1.00
20174;DHT22;10246;50.620;7.232;2023-09-19T03:03:04;17.30;1.00
20174;DHT22;10246;50.620;7.232;2023-09-19T03:05:33;17.30;1.00
20174;DHT22;10246;50.620;7.232;2023-09-19T03:08:01;17.30;1.00
20174;DHT22;10246;50.620;7.232;2023-09-19T03:10:29;17.20;1.00
20174;DHT22;10246;50.620;7.232;2023-09-19T03:12:57;17.20;1.00
20174;DHT22;10246;50.620;7.232;2023-09-19T03:15:25;17.20;1.00
20174;DHT22;10246;50.620;7.232;2023-09-19T03:17:52;17.20;1.00
20174;DHT22;10246;50.620;7.232;2023-09-19T03:20:19;17.20;1.00
20174;DHT22;10246;50.620;7.232;2023-09-19T03:22:46;17.20;1.00
20174;DHT22;10246;50.620;7.232;2023-09-19T03:25:14;17.20;1.00
20174;DHT22;10246;50.620;7.232;2023-09-19T03:27:44;17.10;1.00
20174;DHT22;10246;50.620;7.232;2023-09-19T03:30:11;17.10;1.00
20174;DHT22;10246;50.620;7.232;2023-09-19T03:32:44;17.00;1.00
20174;DHT22;10246;50.620;7.232;2023-09-19T03:35:11;17.00;1.00
20174;DHT22;10246;50.620;7.232;2023-09-19T03:37:39;17.00;1.00
20174;DHT22;10246;50.620;7.232;2023-09-19T03:40:07;17.00;1.00
20174;DHT22;10246;50.620;7.232;2023-09-19T03:42:38;16.90;1.00
20174;DHT22;10246;50.620;7.232;2023-09-19T03:45:07;16.90;1.00
20174;DHT22;10246;50.620;7.232;2023-09-19T03:47:37;16.80;1.00
20174;DHT22;10246;50.620;7.232;2023-09-19T03:50:05;16.80;1.00
20174;DHT22;10246;50.620;7.232;2023-09-19T03:52:33;16.80;1.00
20174;DHT22;10246;50.620;7.232;2023-09-19T03:55:00;16.80;1.00
20174;DHT22;10246;50.620;7.232;2023-09-19T03:57:28;16.70;1.00
20174;DHT22;10246;50.620;7.232;2023-09-19T03:59:54;16.70;1.00
20174;DHT22;10246;50.620;7.232;2023-09-19T04:02:23;16.70;1.00
20174;DHT22;10246;50.620;7.232;2023-09-19T04:04:50;16.60;1.00
20174;DHT22;10246;50.620;7.232;2023-09-19T04:07:17;16.60;1.00
20174;DHT22;10246;50.620;7.232;2023-09-19T04:09:47;16.60;1.00
20174;DHT22;10246;50.620;7.232;2023-09-19T04:12:14;16.60;1.00
20174;DHT22;10246;50.620;7.232;2023-09-19T04:14:43;16.60;1.00
20174;DHT22;10246;50.620;7.232;2023-09-19T04:17:10;16.70;1.00
20174;DHT22;10246;50.620;7.232;2023-09-19T04:19:38;16.50;1.00
20174;DHT22;10246;50.620;7.232;2023-09-19T04:22:06;16.50;1.00
20174;DHT22;10246;50.620;7.232;2023-09-19T04:24:33;16.50;1.00
20174;DHT22;10246;50.620;7.232;2023-09-19T04:27:00;16.50;1.00
20174;DHT22;10246;50.620;7.232;2023-09-19T04:29:27;16.50;1.00
20174;DHT22;10246;50.620;7.232;2023-09-19T04:31:55;16.50;1.00
20174;DHT22;10246;50.620;7.232;2023-09-19T04:34:22;16.50;1.00
20174;DHT22;10246;50.620;7.232;2023-09-19T04:36:51;16.50;1.00
20174;DHT22;10246;50.620;7.232;2023-09-19T04:39:18;16.50;1.00
20174;DHT22;10246;50.620;7.232;2023-09-19T04:41:46;16.50;1.00
20174;DHT22;10246;50.620;7.232;2023-09-19T04:44:13;16.50;1.00
20174;DHT22;10246;50.620;7.232;2023-09-19T04:46:41;16.50;1.00
20174;DHT22;10246;50.620;7.232;2023-09-19T04:49:08;16.40;1.00
20174;DHT22;10246;50.620;7.232;2023-09-19T04:51:35;16.40;1.00
20174;DHT22;10246;50.620;7.232;2023-09-19T04:54:04;16.50;1.00
20174;DHT22;10246;50.620;7.232;2023-09-19T04:56:32;16.50;1.00
20174;DHT22;10246;50.620;7.232;2023-09-19T04:58:59;16.40;1.00
20174;DHT22;10246;50.620;7.232;2023-09-19T05:01:27;16.50;1.00
20174;DHT22;10246;50.620;7.232;2023-09-19T05:03:54;16.40;1.00
20174;DHT22;10246;50.620;7.232;2023-09-19T05:06:21;16.30;1.00
20174;DHT22;10246;50.620;7.232;2023-09-19T05:08:50;16.30;1.00
20174;DHT22;10246;50.620;7.232;2023-09-19T05:11:21;16.30;1.00
20174;DHT22;10246;50.620;7.232;2023-09-19T05:13:50;16.30;1.00
20174;DHT22;10246;50.620;7.232;2023-09-19T05:16:18;16.30;1.00
20174;DHT22;10246;50.620;7.232;2023-09-19T05:18:45;16.20;1.00
20174;DHT22;10246;50.620;7.232;2023-09-19T05:21:13;16.20;1.20
20174;DHT22;10246;50.620;7.232;2023-09-19T05:23:40;16.10;1.00
20174;DHT22;10246;50.620;7.232;2023-09-19T05:26:07;16.10;1.00
20174;DHT22;10246;50.620;7.232;2023-09-19T05:28:37;16.10;1.00
20174;DHT22;10246;50.620;7.232;2023-09-19T05:31:04;16.00;1.20
20174;DHT22;10246;50.620;7.232;2023-09-19T05:33:31;16.00;1.80
20174;DHT22;10246;50.620;7.232;2023-09-19T05:35:58;15.90;2.40
20174;DHT22;10246;50.620;7.232;2023-09-19T05:38:25;15.80;2.80
20174;DHT22;10246;50.620;7.232;2023-09-19T05:40:53;15.80;3.20
20174;DHT22;10246;50.620;7.232;2023-09-19T05:43:54;15.80;3.70
20174;DHT22;10246;50.620;7.232;2023-09-19T05:46:32;15.80;3.50
20174;DHT22;10246;50.620;7.232;2023-09-19T05:48:59;15.80;3.80
20174;DHT22;10246;50.620;7.232;2023-09-19T05:51:26;15.80;3.30
20174;DHT22;10246;50.620;7.232;2023-09-19T05:53:54;15.80;3.10
20174;DHT22;10246;50.620;7.232;2023-09-19T05:56:21;15.80;3.60
20174;DHT22;10246;50.620;7.232;2023-09-19T05:58:50;15.90;3.60
20174;DHT22;10246;50.620;7.232;2023-09-19T06:01:18;15.90;3.50
20174;DHT22;10246;50.620;7.232;2023-09-19T06:03:45;16.00;3.30
20174;DHT22;10246;50.620;7.232;2023-09-19T06:06:14;15.90;3.70
20174;DHT22;10246;50.620;7.232;2023-09-19T06:08:41;15.90;4.10
20174;DHT22;10246;50.620;7.232;2023-09-19T06:11:10;15.90;3.70
20174;DHT22;10246;50.620;7.232;2023-09-19T06:13:37;15.90;3.40
20174;DHT22;10246;50.620;7.232;2023-09-19T06:16:06;16.00;3.80
20174;DHT22;10246;50.620;7.232;2023-09-19T06:18:32;16.00;3.60
20174;DHT22;10246;50.620;7.232;2023-09-19T06:21:02;16.10;3.60
20174;DHT22;10246;50.620;7.232;2023-09-19T06:23:33;16.10;3.70
20174;DHT22;10246;50.620;7.232;2023-09-19T06:26:00;16.00;3.40
20174;DHT22;10246;50.620;7.232;2023-09-19T06:28:26;16.10;3.70
20174;DHT22;10246;50.620;7.232;2023-09-19T06:30:53;16.20;3.80
20174;DHT22;10246;50.620;7.232;2023-09-19T06:33:21;16.20;3.30
20174;DHT22;10246;50.620;7.232;2023-09-19T06:35:48;16.20;3.50
20174;DHT22;10246;50.620;7.232;2023-09-19T06:38:18;16.20;2.60
20174;DHT22;10246;50.620;7.232;2023-09-19T06:40:45;16.20;2.60
20174;DHT22;10246;50.620;7.232;2023-09-19T06:43:12;16.30;2.40
20174;DHT22;10246;50.620;7.232;2023-09-19T06:45:39;16.30;1.80
20174;DHT22;10246;50.620;7.232;2023-09-19T06:48:06;16.40;1.20
20174;DHT22;10246;50.620;7.232;2023-09-19T06:50:36;16.40;1.00
20174;DHT22;10246;50.620;7.232;2023-09-19T06:53:04;16.40;1.00
20174;DHT22;10246;50.620;7.232;2023-09-19T06:55:31;16.50;1.00
20174;DHT22;10246;50.620;7.232;2023-09-19T06:57:57;16.50;1.00
20174;DHT22;10246;50.620;7.232;2023-09-19T07:00:24;16.50;1.00
20174;DHT22;10246;50.620;7.232;2023-09-19T07:02:57;16.50;1.00
20174;DHT22;10246;50.620;7.232;2023-09-19T07:05:26;16.60;1.00
20174;DHT22;10246;50.620;7.232;2023-09-19T07:07:55;16.60;1.00
20174;DHT22;10246;50.620;7.232;2023-09-19T07:10:24;16.60;1.00
20174;DHT22;10246;50.620;7.232;2023-09-19T07:12:55;16.70;1.00
20174;DHT22;10246;50.620;7.232;2023-09-19T07:15:23;16.70;1.00
20174;DHT22;10246;50.620;7.232;2023-09-19T07:17:50;16.70;1.00
20174;DHT22;10246;50.620;7.232;2023-09-19T07:20:17;16.70;1.00
20174;DHT22;10246;50.620;7.232;2023-09-19T07:22:49;16.80;1.00
20174;DHT22;10246;50.620;7.232;2023-09-19T07:25:18;16.80;1.00
20174;DHT22;10246;50.620;7.232;2023-09-19T07:27:44;16.90;1.00
20174;DHT22;10246;50.620;7.232;2023-09-19T07:30:12;16.90;1.00
20174;DHT22;10246;50.620;7.232;2023-09-19T07:32:40;17.00;1.00
20174;DHT22;10246;50.620;7.232;2023-09-19T07:35:07;17.00;1.00
20174;DHT22;10246;50.620;7.232;2023-09-19T07:37:34;17.10;1.00
20174;DHT22;10246;50.620;7.232;2023-09-19T07:40:01;17.10;1.00
20174;DHT22;10246;50.620;7.232;2023-09-19T07:42:33;17.10;1.00
20174;DHT22;10246;50.620;7.232;2023-09-19T07:45:00;17.10;1.00
20174;DHT22;10246;50.620;7.232;2023-09-19T07:47:27;17.10;1.00
20174;DHT22;10246;50.620;7.232;2023-09-19T07:49:55;17.10;1.00
20174;DHT22;10246;50.620;7.232;2023-09-19T07:52:22;17.20;1.00
20174;DHT22;10246;50.620;7.232;2023-09-19T07:54:49;17.30;1.00
20174;DHT22;10246;50.620;7.232;2023-09-19T07:57:16;17.30;1.00
20174;DHT22;10246;50.620;7.232;2023-09-19T07:59:44;17.40;1.00
20174;DHT22;10246;50.620;7.232;2023-09-19T08:02:11;17.40;1.00
20174;DHT22;10246;50.620;7.232;2023-09-19T08:04:41;17.50;1.00
20174;DHT22;10246;50.620;7.232;2023-09-19T08:07:07;17.50;1.00
20174;DHT22;10246;50.620;7.232;2023-09-19T08:09:34;17.60;1.00
20174;DHT22;10246;50.620;7.232;2023-09-19T08:12:02;17.70;1.00
20174;DHT22;10246;50.620;7.232;2023-09-19T08:14:30;17.80;1.00
20174;DHT22;10246;50.620;7.232;2023-09-19T08:16:58;17.80;1.00
20174;DHT22;10246;50.620;7.232;2023-09-19T08:19:26;17.90;1.00
20174;DHT22;10246;50.620;7.232;2023-09-19T08:21:55;17.90;1.00
20174;DHT22;10246;50.620;7.232;2023-09-19T08:24:24;17.90;1.00
20174;DHT22;10246;50.620;7.232;2023-09-19T08:26:52;18.00;1.00
20174;DHT22;10246;50.620;7.232;2023-09-19T08:29:19;18.00;1.00
20174;DHT22;10246;50.620;7.232;2023-09-19T08:31:46;18.20;1.00
20174;DHT22;10246;50.620;7.232;2023-09-19T08:34:16;18.30;1.00
20174;DHT22;10246;50.620;7.232;2023-09-19T08:36:43;18.40;1.00
20174;DHT22;10246;50.620;7.232;2023-09-19T08:39:10;18.40;1.00
20174;DHT22;10246;50.620;7.232;2023-09-19T08:41:39;18.50;1.00
20174;DHT22;10246;50.620;7.232;2023-09-19T08:44:06;18.40;1.00
20174;DHT22;10246;50.620;7.232;2023-09-19T08:46:34;18.50;1.00
20174;DHT22;10246;50.620;7.232;2023-09-19T08:49:05;18.50;1.00
20174;DHT22;10246;50.620;7.232;2023-09-19T08:51:42;18.60;1.00
20174;DHT22;10246;50.620;7.232;2023-09-19T08:54:18;18.60;1.00
20174;DHT22;10246;50.620;7.232;2023-09-19T08:56:48;18.60;1.00
20174;DHT22;10246;50.620;7.232;2023-09-19T08:59:17;18.60;1.00
20174;DHT22;10246;50.620;7.232;2023-09-19T09:01:49;18.70;1.00
20174;DHT22;10246;50.620;7.232;2023-09-19T09:04:19;18.70;1.00
20174;DHT22;10246;50.620;7.232;2023-09-19T09:06:47;18.80;1.00
20174;DHT22;10246;50.620;7.232;2023-09-19T09:09:18;18.80;1.00
20174;DHT22;10246;50.620;7.232;2023-09-19T09:11:48;18.90;1.00
20174;DHT22;10246;50.620;7.232;2023-09-19T09:14:17;19.00;1.00
20174;DHT22;10246;50.620;7.232;2023-09-19T09:16:45;19.00;1.00
20174;DHT22;10246;50.620;7.232;2023-09-19T09:19:14;19.10;1.00
20174;DHT22;10246;50.620;7.232;2023-09-19T09:21:50;19.00;1.00
20174;DHT22;10246;50.620;7.232;2023-09-19T09:24:26;19.00;1.00
20174;DHT22;10246;50.620;7.232;2023-09-19T09:26:54;18.90;1.00
20174;DHT22;10246;50.620;7.232;2023-09-19T09:29:41;19.00;1.00
20174;DHT22;10246;50.620;7.232;2023-09-19T09:32:19;19.10;1.00
20174;DHT22;10246;50.620;7.232;2023-09-19T09:34:46;19.10;1.00
20174;DHT22;10246;50.620;7.232;2023-09-19T09:37:15;19.20;1.00
20174;DHT22;10246;50.620;7.232;2023-09-19T09:39:49;19.30;1.00
20174;DHT22;10246;50.620;7.232;2023-09-19T09:42:30;19.40;1.00
20174;DHT22;10246;50.620;7.232;2023-09-19T09:45:15;19.40;1.00
20174;DHT22;10246;50.620;7.232;2023-09-19T09:47:43;19.50;1.00
20174;DHT22;10246;50.620;7.232;2023-09-19T09:50:26;19.50;1.00
20174;DHT22;10246;50.620;7.232;2023-09-19T09:53:19;19.60;1.00
20174;DHT22;10246;50.620;7.232;2023-09-19T09:56:01;19.60;1.00
20174;DHT22;10246;50.620;7.232;2023-09-19T09:58:30;19.80;1.00
20174;DHT22;10246;50.620;7.232;2023-09-19T10:00:58;19.80;1.00
20174;DHT22;10246;50.620;7.232;2023-09-19T10:03:33;19.80;1.00
20174;DHT22;10246;50.620;7.232;2023-09-19T10:06:04;19.70;1.00
20174;DHT22;10246;50.620;7.232;2023-09-19T10:09:05;19.80;1.00
20174;DHT22;10246;50.620;7.232;2023-09-19T10:11:43;20.00;1.00
20174;DHT22;10246;50.620;7.232;2023-09-19T10:14:11;20.10;1.00
20174;DHT22;10246;50.620;7.232;2023-09-19T10:16:41;20.20;1.00
20174;DHT22;10246;50.620;7.232;2023-09-19T10:19:15;20.30;1.00
20174;DHT22;10246;50.620;7.232;2023-09-19T10:21:42;20.30;1.00
20174;DHT22;10246;50.620;7.232;2023-09-19T10:24:14;20.30;1.00
20174;DHT22;10246;50.620;7.232;2023-09-19T10:26:42;20.40;1.00
20174;DHT22;10246;50.620;7.232;2023-09-19T10:29:12;20.40;1.00
20174;DHT22;10246;50.620;7.232;2023-09-19T10:31:42;20.60;1.00
20174;DHT22;10246;50.620;7.232;2023-09-19T10:34:14;20.50;1.00
20174;DHT22;10246;50.620;7.232;2023-09-19T10:36:44;20.70;1.00
20174;DHT22;10246;50.620;7.232;2023-09-19T10:39:15;20.80;1.00
20174;DHT22;10246;50.620;7.232;2023-09-19T10:41:50;20.70;1.00
20174;DHT22;10246;50.620;7.232;2023-09-19T10:44:21;20.50;1.00
20174;DHT22;10246;50.620;7.232;2023-09-19T10:46:50;20.40;1.00
20174;DHT22;10246;50.620;7.232;2023-09-19T10:49:18;20.40;1.00
20174;DHT22;10246;50.620;7.232;2023-09-19T10:51:47;20.60;1.00
20174;DHT22;10246;50.620;7.232;2023-09-19T10:54:18;20.80;1.00
20174;DHT22;10246;50.620;7.232;2023-09-19T10:56:48;20.90;1.00
20174;DHT22;10246;50.620;7.232;2023-09-19T10:59:16;20.90;1.00
20174;DHT22;10246;50.620;7.232;2023-09-19T11:01:45;20.80;1.00
20174;DHT22;10246;50.620;7.232;2023-09-19T11:04:23;20.80;1.00
20174;DHT22;10246;50.620;7.232;2023-09-19T11:07:02;20.90;1.00
20174;DHT22;10246;50.620;7.232;2023-09-19T11:09:52;20.90;1.00
20174;DHT22;10246;50.620;7.232;2023-09-19T11:12:49;21.20;1.00
20174;DHT22;10246;50.620;7.232;2023-09-19T11:21:51;21.40;1.00
20174;DHT22;10246;50.620;7.232;2023-09-19T11:24:30;21.60;1.00
20174;DHT22;10246;50.620;7.232;2023-09-19T11:27:13;21.40;1.00
20174;DHT22;10246;50.620;7.232;2023-09-19T11:29:42;21.40;1.00
20174;DHT22;10246;50.620;7.232;2023-09-19T11:32:09;21.50;1.00
20174;DHT22;10246;50.620;7.232;2023-09-19T11:34:48;21.60;1.00
20174;DHT22;10246;50.620;7.232;2023-09-19T11:40:33;21.60;1.00
20174;DHT22;10246;50.620;7.232;2023-09-19T11:43:29;21.80;1.00
20174;DHT22;10246;50.620;7.232;2023-09-19T11:46:06;21.70;1.00
20174;DHT22;10246;50.620;7.232;2023-09-19T11:48:35;21.70;1.00
20174;DHT22;10246;50.620;7.232;2023-09-19T11:51:13;21.60;1.00
20174;DHT22;10246;50.620;7.232;2023-09-19T11:53:48;21.80;1.00
20174;DHT22;10246;50.620;7.232;2023-09-19T11:56:17;21.90;1.00
20174;DHT22;10246;50.620;7.232;2023-09-19T11:58:45;22.00;1.00
20174;DHT22;10246;50.620;7.232;2023-09-19T12:01:19;22.10;1.00
20174;DHT22;10246;50.620;7.232;2023-09-19T12:03:53;22.20;1.00
20174;DHT22;10246;50.620;7.232;2023-09-19T12:06:22;22.20;1.00
20174;DHT22;10246;50.620;7.232;2023-09-19T12:08:49;22.50;1.00
20174;DHT22;10246;50.620;7.232;2023-09-19T12:11:17;22.50;1.00
20174;DHT22;10246;50.620;7.232;2023-09-19T12:13:47;22.50;1.00
20174;DHT22;10246;50.620;7.232;2023-09-19T12:16:15;22.70;1.00
20174;DHT22;10246;50.620;7.232;2023-09-19T12:18:43;22.80;1.00
20174;DHT22;10246;50.620;7.232;2023-09-19T12:21:28;22.80;1.00
20174;DHT22;10246;50.620;7.232;2023-09-19T12:24:04;23.00;1.00
20174;DHT22;10246;50.620;7.232;2023-09-19T12:26:30;23.10;1.00
20174;DHT22;10246;50.620;7.232;2023-09-19T12:29:05;23.20;1.00
20174;DHT22;10246;50.620;7.232;2023-09-19T12:31:33;23.20;1.00
20174;DHT22;10246;50.620;7.232;2023-09-19T12:34:02;23.20;1.00
20174;DHT22;10246;50.620;7.232;2023-09-19T12:36:30;23.20;1.00
20174;DHT22;10246;50.620;7.232;2023-09-19T12:38:58;23.10;1.00
20174;DHT22;10246;50.620;7.232;2023-09-19T12:41:25;22.90;1.00
20174;DHT22;10246;50.620;7.232;2023-09-19T12:43:52;23.00;1.00
20174;DHT22;10246;50.620;7.232;2023-09-19T12:46:21;23.10;1.00
20174;DHT22;10246;50.620;7.232;2023-09-19T12:49:15;23.20;1.00
20174;DHT22;10246;50.620;7.232;2023-09-19T12:51:44;23.10;1.00
20174;DHT22;10246;50.620;7.232;2023-09-19T12:54:11;23.20;1.00
20174;DHT22;10246;50.620;7.232;2023-09-19T12:56:40;23.20;1.00
20174;DHT22;10246;50.620;7.232;2023-09-19T12:59:11;23.30;1.00
20174;DHT22;10246;50.620;7.232;2023-09-19T13:01:40;23.20;1.00
20174;DHT22;10246;50.620;7.232;2023-09-19T13:04:16;23.20;1.00
20174;DHT22;10246;50.620;7.232;2023-09-19T13:06:45;23.20;1.00
20174;DHT22;10246;50.620;7.232;2023-09-19T13:09:14;23.20;1.00
20174;DHT22;10246;50.620;7.232;2023-09-19T13:11:43;23.20;1.00
20174;DHT22;10246;50.620;7.232;2023-09-19T13:14:15;23.20;1.00
20174;DHT22;10246;50.620;7.232;2023-09-19T13:16:57;23.40;1.00
20174;DHT22;10246;50.620;7.232;2023-09-19T13:19:37;23.60;1.00
20174;DHT22;10246;50.620;7.232;2023-09-19T13:22:05;23.90;1.00
20174;DHT22;10246;50.620;7.232;2023-09-19T13:24:34;23.80;1.00
20174;DHT22;10246;50.620;7.232;2023-09-19T13:27:05;23.60;1.00
20174;DHT22;10246;50.620;7.232;2023-09-19T13:29:35;23.60;1.00
20174;DHT22;10246;50.620;7.232;2023-09-19T13:32:04;23.80;1.00
20174;DHT22;10246;50.620;7.232;2023-09-19T13:34:31;23.70;1.00
20174;DHT22;10246;50.620;7.232;2023-09-19T13:36:57;23.40;1.00
20174;DHT22;10246;50.620;7.232;2023-09-19T13:39:26;23.40;1.00
20174;DHT22;10246;50.620;7.232;2023-09-19T13:41:54;23.40;1.00
20174;DHT22;10246;50.620;7.232;2023-09-19T13:44:22;23.30;1.00
20174;DHT22;10246;50.620;7.232;2023-09-19T13:46:49;23.20;1.00
20174;DHT22;10246;50.620;7.232;2023-09-19T13:49:23;23.20;1.00
20174;DHT22;10246;50.620;7.232;2023-09-19T13:51:56;23.30;1.00
20174;DHT22;10246;50.620;7.232;2023-09-19T13:54:26;23.60;1.00
20174;DHT22;10246;50.620;7.232;2023-09-19T13:56:53;23.80;1.00
20174;DHT22;10246;50.620;7.232;2023-09-19T13:59:20;23.70;1.00
20174;DHT22;10246;50.620;7.232;2023-09-19T14:01:49;23.70;1.00
20174;DHT22;10246;50.620;7.232;2023-09-19T14:04:16;23.90;1.00
20174;DHT22;10246;50.620;7.232;2023-09-19T14:06:45;23.90;1.00
20174;DHT22;10246;50.620;7.232;2023-09-19T14:09:12;23.80;1.00
20174;DHT22;10246;50.620;7.232;2023-09-19T14:11:39;23.70;1.00
20174;DHT22;10246;50.620;7.232;2023-09-19T14:14:07;23.50;1.00
20174;DHT22;10246;50.620;7.232;2023-09-19T14:16:34;23.70;1.00
20174;DHT22;10246;50.620;7.232;2023-09-19T14:19:02;23.80;1.00
20174;DHT22;10246;50.620;7.232;2023-09-19T14:21:29;23.80;1.00
20174;DHT22;10246;50.620;7.232;2023-09-19T14:23:57;23.70;1.00
20174;DHT22;10246;50.620;7.232;2023-09-19T14:26:23;23.70;1.00
20174;DHT22;10246;50.620;7.232;2023-09-19T14:28:50;23.60;1.00
20174;DHT22;10246;50.620;7.232;2023-09-19T14:31:20;23.60;1.00
20174;DHT22;10246;50.620;7.232;2023-09-19T14:33:53;23.60;1.00
20174;DHT22;10246;50.620;7.232;2023-09-19T14:36:22;23.50;1.00
20174;DHT22;10246;50.620;7.232;2023-09-19T14:38:52;23.50;1.00
20174;DHT22;10246;50.620;7.232;2023-09-19T14:41:22;23.40;1.00
20174;DHT22;10246;50.620;7.232;2023-09-19T14:43:51;23.30;1.00
20174;DHT22;10246;50.620;7.232;2023-09-19T14:46:18;23.20;1.00
20174;DHT22;10246;50.620;7.232;2023-09-19T14:48:45;23.10;1.00
20174;DHT22;10246;50.620;7.232;2023-09-19T14:51:13;22.90;1.00
20174;DHT22;10246;50.620;7.232;2023-09-19T14:53:40;22.90;1.00
20174;DHT22;10246;50.620;7.232;2023-09-19T14:56:08;22.80;1.00
20174;DHT22;10246;50.620;7.232;2023-09-19T14:58:37;23.00;1.00
20174;DHT22;10246;50.620;7.232;2023-09-19T15:01:06;23.20;1.00
20174;DHT22;10246;50.620;7.232;2023-09-19T15:03:34;23.10;1.00
20174;DHT22;10246;50.620;7.232;2023-09-19T15:06:02;22.90;1.00
20174;DHT22;10246;50.620;7.232;2023-09-19T15:08:30;22.90;1.00
20174;DHT22;10246;50.620;7.232;2023-09-19T15:10:57;22.80;1.00
20174;DHT22;10246;50.620;7.232;2023-09-19T15:13:24;22.70;1.00
20174;DHT22;10246;50.620;7.232;2023-09-19T15:15:59;22.50;1.00
20174;DHT22;10246;50.620;7.232;2023-09-19T15:18:26;22.50;1.00
20174;DHT22;10246;50.620;7.232;2023-09-19T15:20:53;22.30;1.00
20174;DHT22;10246;50.620;7.232;2023-09-19T15:23:21;22.50;1.00
20174;DHT22;10246;50.620;7.232;2023-09-19T15:25:48;22.50;1.00
20174;DHT22;10246;50.620;7.232;2023-09-19T15:28:15;22.40;1.00
20174;DHT22;10246;50.620;7.232;2023-09-19T15:30:41;22.30;1.00
20174;DHT22;10246;50.620;7.232;2023-09-19T15:33:09;22.30;1.00
20174;DHT22;10246;50.620;7.232;2023-09-19T15:35:37;22.40;1.00
20174;DHT22;10246;50.620;7.232;2023-09-19T15:38:04;22.40;1.00
20174;DHT22;10246;50.620;7.232;2023-09-19T15:40:30;22.30;1.00
20174;DHT22;10246;50.620;7.232;2023-09-19T15:42:57;22.30;1.00
20174;DHT22;10246;50.620;7.232;2023-09-19T15:45:25;22.20;1.00
20174;DHT22;10246;50.620;7.232;2023-09-19T15:47:53;22.20;1.00
20174;DHT22;10246;50.620;7.232;2023-09-19T15:50:21;22.20;1.00
20174;DHT22;10246;50.620;7.232;2023-09-19T15:52:53;22.10;1.00
20174;DHT22;10246;50.620;7.232;2023-09-19T15:55:20;22.20;1.00
20174;DHT22;10246;50.620;7.232;2023-09-19T15:57:53;22.30;1.00
20174;DHT22;10246;50.620;7.232;2023-09-19T16:00:26;22.40;1.00
20174;DHT22;10246;50.620;7.232;2023-09-19T16:03:26;22.50;1.00
20174;DHT22;10246;50.620;7.232;2023-09-19T16:06:08;22.40;1.00
20174;DHT22;10246;50.620;7.232;2023-09-19T16:08:40;22.30;1.00
20174;DHT22;10246;50.620;7.232;2023-09-19T16:11:07;22.30;1.00
20174;DHT22;10246;50.620;7.232;2023-09-19T16:13:34;22.20;1.00